Time;durP1;ratioP1;P1;durP2;ratioP2;P2;SDS_P1;SDS_P2;PMS_P1;PMS_P2;Temp;Humidity;BMP_temperature;BMP_pressure;BME280_temperature;BME280_humidity;BME280_pressure;Samples;Min_cycle;Max_cycle;Signal;HPM_P1;HPM_P2
2022/01/14 00:01:09;;;;;;;32.70;18.67;;;;;;;-5.54;100.00;99031.35;1724865;83;21026;-69
2022/01/14 00:03:38;;;;;;;34.33;19.93;;;;;;;-5.54;100.00;99020.81;1673039;85;20992;-68
2022/01/14 00:06:09;;;;;;;33.77;19.00;;;;;;;-5.55;100.00;99017.31;1702004;84;21072;-68
2022/01/14 00:08:37;;;;;;;32.70;19.10;;;;;;;-5.52;100.00;99003.12;1714914;83;21041;-68
2022/01/14 00:11:13;;;;;;;32.47;18.50;;;;;;;-5.50;100.00;99003.87;1739519;82;21009;-68
2022/01/14 00:16:15;;;;;;;29.95;18.45;;;;;;;-5.43;100.00;98986.73;1701171;84;21044;-69
2022/01/14 00:18:42;;;;;;;32.73;18.43;;;;;;;-5.37;100.00;98977.59;1709531;83;21498;-69
2022/01/14 00:21:09;;;;;;;30.20;17.57;;;;;;;-5.34;100.00;98968.19;1672288;86;21084;-69
2022/01/14 00:23:37;;;;;;;31.27;17.60;;;;;;;-5.31;100.00;98962.73;1709437;83;21498;-68
2022/01/14 00:31:46;;;;;;;30.83;17.57;;;;;;;-5.21;100.00;98915.53;1672387;85;21518;-69
2022/01/14 00:34:14;;;;;;;32.03;18.10;;;;;;;-5.21;100.00;98877.32;1709568;81;20997;-69
2022/01/14 00:36:41;;;;;;;30.70;18.10;;;;;;;-5.21;100.00;98853.12;1701638;83;21048;-69
2022/01/14 00:39:10;;;;;;;32.30;18.80;;;;;;;-5.19;100.00;98839.84;1709314;83;21084;-69
2022/01/14 00:41:36;;;;;;;31.33;18.27;;;;;;;-5.17;100.00;98818.18;1739698;81;21025;-68
2022/01/14 00:44:10;;;;;;;28.60;17.60;;;;;;;-5.15;100.00;98771.02;1672309;85;21005;-70
2022/01/14 00:46:35;;;;;;;32.87;19.10;;;;;;;-5.10;100.00;98749.61;1710075;82;21048;-68
2022/01/14 00:49:03;;;;;;;32.67;19.03;;;;;;;-5.07;100.00;98719.58;1709246;84;21057;-69
2022/01/14 00:51:32;;;;;;;31.07;17.90;;;;;;;-5.06;100.00;98581.09;1672240;85;21103;-69
2022/01/14 00:53:59;;;;;;;32.60;18.47;;;;;;;-5.04;100.00;98581.81;1717103;82;21026;-70
2022/01/14 00:59:16;;;;;;;33.15;18.62;;;;;;;-5.00;100.00;98586.39;1720980;83;21053;-69
2022/01/14 01:01:48;;;;;;;34.90;18.70;;;;;;;-4.99;100.00;98582.34;1686113;85;20991;-69
2022/01/14 01:04:22;;;;;;;31.33;18.17;;;;;;;-4.96;100.00;98585.22;1583162;89;21096;-69
2022/01/14 01:06:49;;;;;;;33.00;18.90;;;;;;;-4.92;100.00;98593.75;1571541;91;21082;-69
2022/01/14 01:09:17;;;;;;;32.43;18.23;;;;;;;-4.89;100.00;98601.45;1571565;90;21122;-69
2022/01/14 01:14:20;;;;;;;31.20;18.30;;;;;;;-4.86;100.00;98588.89;1555419;92;21100;-69
2022/01/14 01:16:45;;;;;;;35.23;19.53;;;;;;;-4.82;100.00;98584.23;1564500;90;21128;-68
2022/01/14 01:19:11;;;;;;;31.07;17.93;;;;;;;-4.80;100.00;98572.65;1561254;92;21119;-68
2022/01/14 01:21:38;;;;;;;31.07;17.57;;;;;;;-4.78;100.00;98574.69;1541468;92;21114;-68
2022/01/14 01:24:08;;;;;;;32.33;18.93;;;;;;;-4.74;100.00;98579.75;1561429;92;21087;-68
2022/01/14 01:26:40;;;;;;;32.60;17.90;;;;;;;-4.70;100.00;98582.05;1561447;92;21116;-69
2022/01/14 01:29:18;;;;;;;32.50;17.83;;;;;;;-4.68;100.00;98577.49;1561300;92;21090;-69
2022/01/14 01:31:37;;;;;;;30.70;17.50;;;;;;;-4.66;100.00;98566.84;1544707;92;21063;-69
2022/01/14 01:34:16;;;;;;;32.07;18.40;;;;;;;-4.61;100.00;98564.23;1561270;91;21071;-69
2022/01/14 01:36:46;;;;;;;31.57;18.47;;;;;;;-4.56;100.00;98559.11;1561332;92;21094;-69
2022/01/14 01:39:15;;;;;;;30.93;17.93;;;;;;;-4.58;100.00;98538.95;1561451;92;21147;-69
2022/01/14 01:41:46;;;;;;;31.80;18.17;;;;;;;-4.53;100.00;98545.67;1561429;92;21083;-69
2022/01/14 01:44:14;;;;;;;33.10;18.77;;;;;;;-4.52;100.00;98525.78;1561322;90;21066;-68
2022/01/14 01:46:45;;;;;;;31.53;17.37;;;;;;;-4.50;100.00;98515.95;1561242;92;21106;-68
2022/01/14 01:49:11;;;;;;;32.47;18.23;;;;;;;-4.47;100.00;98519.69;1561697;92;21095;-69
2022/01/14 01:51:38;;;;;;;32.70;18.23;;;;;;;-4.42;100.00;98504.84;1561596;92;21114;-68
2022/01/14 01:54:05;;;;;;;32.73;17.90;;;;;;;-4.42;100.00;98517.55;1560028;92;21067;-69
2022/01/14 01:56:33;;;;;;;34.43;19.17;;;;;;;-4.40;100.00;98509.53;1555520;92;21595;-68
2022/01/14 01:59:01;;;;;;;36.70;19.63;;;;;;;-4.37;100.00;98513.27;1555903;92;21142;-69
2022/01/14 02:01:29;;;;;;;33.00;18.80;;;;;;;-4.34;100.00;98513.50;1534023;90;21038;-69
2022/01/14 02:03:56;;;;;;;30.63;17.97;;;;;;;-4.33;100.00;98505.48;1530356;93;21054;-69
2022/01/14 02:06:25;;;;;;;30.43;17.50;;;;;;;-4.30;100.00;98501.30;1553057;92;21065;-68
2022/01/14 02:08:52;;;;;;;32.07;18.77;;;;;;;-4.27;100.00;98487.84;1550026;93;21542;-69
2022/01/14 02:11:20;;;;;;;32.23;19.40;;;;;;;-4.25;100.00;98471.44;1609231;87;21115;-68
2022/01/14 02:13:56;;;;;;;34.13;19.37;;;;;;;-4.22;100.00;98467.72;1680352;84;21028;-68
2022/01/14 02:16:58;;;;;;;31.90;18.50;;;;;;;-4.19;100.00;98458.25;1642896;86;21055;-69
2022/01/14 02:27:09;;;;;;;32.90;18.13;;;;;;;-4.11;100.00;98427.30;1642265;86;21054;-69
2022/01/14 02:29:35;;;;;;;33.33;19.37;;;;;;;-4.08;100.00;98425.27;1650569;86;21040;-69
2022/01/14 02:32:04;;;;;;;32.43;18.77;;;;;;;-4.06;100.00;98426.47;1645227;86;21071;-68
2022/01/14 02:34:31;;;;;;;31.83;18.53;;;;;;;-4.04;100.00;98417.95;1649855;87;21114;-68
2022/01/14 02:36:59;;;;;;;32.83;18.63;;;;;;;-4.02;100.00;98412.92;1629820;87;21580;-68
2022/01/14 02:39:26;;;;;;;33.77;18.67;;;;;;;-3.98;100.00;98400.33;1646334;86;20996;-69
2022/01/14 02:41:53;;;;;;;33.30;18.23;;;;;;;-3.96;100.00;98390.97;1649335;87;21105;-68
2022/01/14 02:44:26;;;;;;;32.03;17.27;;;;;;;-3.93;100.00;98388.93;1642475;86;21032;-69
2022/01/14 02:46:58;;;;;;;32.97;18.47;;;;;;;-3.89;100.00;98381.61;1658305;85;21036;-68
2022/01/14 02:49:29;;;;;;;30.77;18.05;;;;;;;-3.87;100.00;98372.59;1614420;88;21064;-68
2022/01/14 02:51:57;;;;;;;32.80;18.20;;;;;;;-3.83;100.00;98363.94;1621689;88;21139;-69
2022/01/14 02:54:32;;;;;;;32.43;17.87;;;;;;;-3.81;100.00;98358.05;1609551;88;21051;-68
2022/01/14 02:56:59;;;;;;;;;;;;;;;-3.77;100.00;98338.84;1585867;89;21117;-69
2022/01/14 02:59:26;;;;;;;34.97;19.33;;;;;;;-3.75;100.00;98340.41;1584133;90;20127;-70
2022/01/14 03:01:53;;;;;;;34.70;19.77;;;;;;;-3.75;100.00;98339.55;1592043;89;21489;-69
2022/01/14 03:04:22;;;;;;;35.70;18.77;;;;;;;-3.75;100.00;98327.20;1644326;87;21011;-70
2022/01/14 03:06:49;;;;;;;31.30;17.87;;;;;;;-3.71;100.00;98322.52;1587350;87;21029;-69
2022/01/14 03:09:16;;;;;;;31.67;18.67;;;;;;;-3.71;100.00;98310.63;1649852;87;21087;-69
2022/01/14 03:11:56;;;;;;;33.47;18.10;;;;;;;-3.70;100.00;98305.23;1596159;87;21034;-69
2022/01/14 03:14:24;;;;;;;33.83;18.17;;;;;;;-3.68;100.00;98301.97;1626293;87;21022;-70
2022/01/14 03:16:58;;;;;;;31.97;17.90;;;;;;;-3.65;100.00;98297.77;1636958;87;21083;-67
2022/01/14 03:19:25;;;;;;;30.90;16.47;;;;;;;-3.61;100.00;98294.41;1637231;88;21537;-69
2022/01/14 03:22:04;;;;;;;33.77;18.20;;;;;;;-3.59;100.00;98295.57;1637016;87;21112;-69
2022/01/14 03:25:37;;;;;;;33.07;18.47;;;;;;;-3.59;100.00;98295.57;1653682;87;21014;-68
2022/01/14 03:26:53;;;;;;;31.93;17.37;;;;;;;-3.57;100.00;98286.58;1640639;86;21103;-68
2022/01/14 03:29:21;;;;;;;33.67;19.03;;;;;;;-3.55;100.00;98275.88;1653904;87;21129;-68
2022/01/14 03:31:49;;;;;;;31.77;17.93;;;;;;;-3.54;100.00;98282.37;1637018;88;21485;-70
2022/01/14 03:34:17;;;;;;;31.27;18.03;;;;;;;-3.51;100.00;98271.52;1653816;85;21014;-70
2022/01/14 03:36:44;;;;;;;31.33;17.77;;;;;;;-3.49;100.00;98266.13;1636783;87;21080;-69
2022/01/14 03:39:11;;;;;;;32.00;17.57;;;;;;;-3.47;100.00;98262.41;1646866;87;21073;-68
2022/01/14 03:41:38;;;;;;;31.60;17.83;;;;;;;-3.43;100.00;98261.67;1622075;88;21022;-69
2022/01/14 03:44:05;;;;;;;32.87;17.77;;;;;;;-3.41;100.00;98247.02;1622067;88;21050;-70
2022/01/14 03:46:32;;;;;;;30.83;16.97;;;;;;;-3.38;100.00;98238.81;1600653;88;21054;-69
2022/01/14 03:48:59;;;;;;;30.47;17.07;;;;;;;-3.34;100.00;98246.86;1639044;87;21070;-70
2022/01/14 03:51:28;;;;;;;33.03;18.30;;;;;;;-3.32;100.00;98238.31;1621938;88;21066;-69
2022/01/14 03:53:56;;;;;;;32.60;18.03;;;;;;;-3.28;100.00;98229.16;1638920;88;21059;-69
2022/01/14 03:56:26;;;;;;;33.60;18.97;;;;;;;-3.29;100.00;98228.33;1651576;86;21582;-69
2022/01/14 03:58:54;;;;;;;32.30;18.20;;;;;;;-3.29;100.00;98216.42;1676091;86;21047;-67
2022/01/14 04:01:21;;;;;;;35.23;19.67;;;;;;;-3.26;100.00;98215.32;1706155;83;21049;-70
2022/01/14 04:03:50;;;;;;;33.43;19.00;;;;;;;-3.26;100.00;98204.28;1670203;84;21042;-69
2022/01/14 04:06:17;;;;;;;33.97;18.60;;;;;;;-3.26;100.00;98199.00;1687649;84;21053;-68
2022/01/14 04:08:44;;;;;;;32.60;18.20;;;;;;;-3.24;100.00;98189.59;1689654;85;21070;-69
2022/01/14 04:11:11;;;;;;;31.90;17.93;;;;;;;-3.22;100.00;98180.21;1686046;85;21057;-70
2022/01/14 04:13:47;;;;;;;33.50;18.93;;;;;;;-3.21;100.00;98173.48;1686415;85;21495;-69
2022/01/14 04:16:12;;;;;;;33.60;18.67;;;;;;;-3.20;100.00;98170.38;1690321;85;21010;-70
2022/01/14 04:18:39;;;;;;;33.00;17.83;;;;;;;-3.16;100.00;98166.49;1686251;85;22296;-70
2022/01/14 04:21:07;;;;;;;33.70;18.70;;;;;;;-3.16;100.00;98152.78;1690630;85;21030;-69
2022/01/14 04:23:34;;;;;;;32.93;18.37;;;;;;;-3.13;100.00;98155.17;1689802;85;21582;-70
2022/01/14 04:26:00;;;;;;;32.43;17.97;;;;;;;-3.11;100.00;98148.44;1686383;85;21538;-69
2022/01/14 04:30:58;;;;;;;34.30;20.23;;;;;;;-3.06;100.00;98133.84;1634133;87;21070;-70
2022/01/14 04:33:29;;;;;;;31.07;18.13;;;;;;;-3.03;100.00;98132.73;1656101;86;21062;-71
2022/01/14 04:35:58;;;;;;;32.77;18.90;;;;;;;-2.99;100.00;98122.27;1605212;89;21065;-69
2022/01/14 04:38:28;;;;;;;34.77;18.97;;;;;;;-2.96;100.00;98127.76;1599053;88;21102;-69
2022/01/14 04:40:55;;;;;;;32.57;18.00;;;;;;;-2.96;100.00;98123.30;1620216;88;21058;-69
2022/01/14 04:43:22;;;;;;;32.23;18.33;;;;;;;-2.95;100.00;98126.30;1620310;88;21129;-69
2022/01/14 04:48:22;;;;;;;32.80;18.42;;;;;;;-2.87;100.00;98118.55;1599040;88;21143;-68
2022/01/14 04:50:53;;;;;;;30.10;17.00;;;;;;;-2.85;100.00;98107.84;1599088;88;21154;-70
2022/01/14 04:53:20;;;;;;;30.53;16.77;;;;;;;-2.80;100.00;98109.58;1619583;88;21122;-69
2022/01/14 04:55:48;;;;;;;32.50;17.77;;;;;;;-2.77;100.00;98100.06;1617113;88;21074;-69
2022/01/14 04:58:15;;;;;;;35.17;17.97;;;;;;;-2.74;100.00;98105.09;1614664;89;21091;-69
2022/01/14 05:00:43;;;;;;;29.97;16.83;;;;;;;-2.71;100.00;98090.28;1594511;89;21155;-69
2022/01/14 05:03:10;;;;;;;31.47;17.77;;;;;;;-2.68;100.00;98088.66;1585218;90;21557;-69
2022/01/14 05:05:40;;;;;;;30.30;17.20;;;;;;;-2.63;100.00;98084.80;1589215;90;21550;-69
2022/01/14 05:08:10;;;;;;;31.37;18.10;;;;;;;-2.61;100.00;98086.32;1589652;89;21097;-70
2022/01/14 05:10:48;;;;;;;31.00;17.03;;;;;;;-2.58;100.00;98090.02;1589089;89;21105;-69
2022/01/14 05:13:05;;;;;;;29.77;17.27;;;;;;;-2.56;100.00;98088.57;1593144;89;21238;-70
2022/01/14 05:15:32;;;;;;;32.17;17.47;;;;;;;-2.52;100.00;98075.41;1590577;90;21554;-69
2022/01/14 05:17:59;;;;;;;30.20;15.93;;;;;;;-2.47;100.00;98072.36;1610341;89;21177;-68
2022/01/14 05:20:27;;;;;;;28.27;16.07;;;;;;;-2.45;100.00;98069.91;1589083;90;21622;-68
2022/01/14 05:22:54;;;;;;;31.73;16.67;;;;;;;-2.41;100.00;98072.63;1589349;90;21069;-69
2022/01/14 05:25:21;;;;;;;27.20;15.30;;;;;;;-2.35;100.00;98071.27;1589657;90;21061;-69
2022/01/14 05:27:47;;;;;;;27.67;15.53;;;;;;;-2.30;100.00;98063.26;1594525;90;21044;-69
2022/01/14 05:30:15;;;;;;;27.30;15.30;;;;;;;-2.25;100.00;98047.44;1578211;90;21052;-70
2022/01/14 05:32:52;;;;;;;29.30;15.47;;;;;;;-2.20;100.00;98042.56;1596289;88;21530;-71
2022/01/14 05:35:25;;;;;;;29.67;15.47;;;;;;;-2.17;100.00;98028.55;1655510;85;21056;-69
2022/01/14 05:37:52;;;;;;;29.12;16.42;;;;;;;-2.14;100.00;98016.86;1655852;86;21049;-70
2022/01/14 05:40:20;;;;;;;29.13;16.07;;;;;;;-2.12;100.00;98002.49;1628598;87;21075;-68
2022/01/14 05:42:47;;;;;;;27.67;15.17;;;;;;;-2.10;100.00;97991.27;1705561;84;20999;-68
2022/01/14 05:45:15;;;;;;;29.57;17.27;;;;;;;-2.08;100.00;97976.56;1659129;86;21111;-68
2022/01/14 05:47:42;;;;;;;29.93;17.33;;;;;;;-2.06;100.00;97985.20;1696378;84;21034;-69
2022/01/14 05:50:12;;;;;;;28.20;17.00;;;;;;;-2.03;100.00;97981.45;1697131;84;21045;-70
2022/01/14 05:52:40;;;;;;;29.47;17.53;;;;;;;-2.02;100.00;97970.72;1736090;82;21578;-70
2022/01/14 05:55:12;;;;;;;27.67;15.87;;;;;;;-1.99;100.00;97970.91;1707708;84;21076;-69
2022/01/14 05:57:40;;;;;;;26.80;15.90;;;;;;;-1.98;100.00;97969.44;1712859;84;21056;-72
2022/01/14 06:00:11;;;;;;;28.53;16.63;;;;;;;-1.95;100.00;97960.36;1687793;84;21027;-71
2022/01/14 06:02:39;;;;;;;27.22;15.90;;;;;;;-1.92;100.00;97952.97;1696826;84;21460;-73
2022/01/14 06:05:08;;;;;;;27.63;15.97;;;;;;;-1.89;100.00;97955.83;1696325;85;21074;-70
2022/01/14 06:07:36;;;;;;;25.63;14.83;;;;;;;-1.86;100.00;97950.26;1696815;84;21013;-69
2022/01/14 06:10:04;;;;;;;27.63;15.27;;;;;;;-1.82;100.00;97949.48;1697609;84;21045;-69
2022/01/14 06:12:31;;;;;;;26.27;14.73;;;;;;;-1.80;100.00;97940.89;1721470;83;21025;-71
2022/01/14 06:15:00;;;;;;;28.53;15.63;;;;;;;-1.78;100.00;97933.63;1697692;84;21037;-70
2022/01/14 06:17:27;;;;;;;28.53;14.87;;;;;;;-1.75;100.00;97925.41;1721696;83;21032;-69
2022/01/14 06:19:54;;;;;;;29.17;16.50;;;;;;;-1.73;100.00;97923.44;1721444;83;21557;-70
2022/01/14 06:22:22;;;;;;;30.57;16.80;;;;;;;-1.70;100.00;97915.17;1697434;84;21049;-70
2022/01/14 06:24:49;;;;;;;28.87;15.13;;;;;;;-1.67;100.00;97903.47;1697648;84;21526;-69
2022/01/14 06:27:16;;;;;;;26.07;15.07;;;;;;;-1.62;100.00;97894.09;1697345;84;21049;-69
2022/01/14 06:29:43;;;;;;;29.60;17.90;;;;;;;-1.60;100.00;97890.80;1721666;83;21021;-69
2022/01/14 06:32:10;;;;;;;27.07;15.73;;;;;;;-1.57;100.00;97887.03;1697165;84;21029;-70
2022/01/14 06:34:37;;;;;;;28.47;16.57;;;;;;;-1.52;100.00;97883.45;1721575;83;21119;-69
2022/01/14 06:37:05;;;;;;;25.10;13.57;;;;;;;-1.48;100.00;97876.05;1697465;84;21545;-69
2022/01/14 06:39:32;;;;;;;31.70;18.30;;;;;;;-1.44;100.00;97872.10;1721587;83;21088;-69
2022/01/14 06:41:59;;;;;;;27.90;15.67;;;;;;;-1.40;100.00;97862.86;1720267;83;21040;-70
2022/01/14 06:44:27;;;;;;;28.83;17.03;;;;;;;-1.40;100.00;97858.88;1720955;83;21044;-68
2022/01/14 06:46:54;;;;;;;29.93;16.80;;;;;;;-1.38;100.00;97855.12;1697728;84;21084;-70
2022/01/14 06:49:21;;;;;;;31.17;18.07;;;;;;;-1.36;100.00;97849.17;1696860;84;21553;-69
2022/01/14 06:51:50;;;;;;;25.23;13.97;;;;;;;-1.30;100.00;97834.98;1695781;84;21105;-68
2022/01/14 06:54:20;;;;;;;26.83;15.33;;;;;;;-1.27;100.00;97830.20;1696454;84;21032;-69
2022/01/14 06:56:47;;;;;;;25.97;15.37;;;;;;;-1.28;100.00;97811.79;1711535;82;21077;-69
2022/01/14 06:59:15;;;;;;;20.60;11.67;;;;;;;-1.26;100.00;97813.30;1686857;85;21635;-69
2022/01/14 07:01:42;;;;;;;24.77;13.93;;;;;;;-1.23;100.00;97793.62;1681335;85;21030;-70
2022/01/14 07:04:10;;;;;;;27.93;16.03;;;;;;;-1.22;100.00;97788.16;1660912;86;21079;-69
2022/01/14 07:06:37;;;;;;;26.63;15.40;;;;;;;-1.22;100.00;97774.91;1669642;85;21117;-70
2022/01/14 07:09:04;;;;;;;26.03;14.70;;;;;;;-1.19;100.00;97767.98;1691771;85;21006;-70
2022/01/14 07:11:36;;;;;;;27.90;16.97;;;;;;;-1.18;100.00;97749.73;1718957;83;21104;-69
2022/01/14 07:14:01;;;;;;;25.33;14.77;;;;;;;-1.13;100.00;97734.70;1695143;83;21053;-69
2022/01/14 07:16:28;;;;;;;26.40;14.43;;;;;;;-1.10;100.00;97733.55;1691818;85;21058;-69
2022/01/14 07:18:56;;;;;;;28.53;17.40;;;;;;;-1.09;100.00;97728.59;1692248;85;21045;-69
2022/01/14 07:21:23;;;;;;;34.70;22.10;;;;;;;-1.07;100.00;97727.45;1719394;83;21110;-70
2022/01/14 07:23:50;;;;;;;39.60;25.80;;;;;;;-1.04;100.00;97729.80;1684569;85;21034;-69
2022/01/14 07:26:19;;;;;;;32.90;20.87;;;;;;;-1.00;100.00;97717.05;1611570;88;21089;-70
2022/01/14 07:28:46;;;;;;;29.93;17.43;;;;;;;-0.98;100.00;97711.92;1684165;85;21062;-70
2022/01/14 07:31:13;;;;;;;28.17;17.00;;;;;;;-0.94;100.00;97701.83;1611538;88;21090;-69
2022/01/14 07:33:42;;;;;;;29.33;17.93;;;;;;;-0.92;100.00;97695.05;1661396;86;21034;-69
2022/01/14 07:36:09;;;;;;;24.73;15.10;;;;;;;-0.89;100.00;97700.88;1645644;87;21573;-70
2022/01/14 07:38:36;;;;;;;27.77;16.90;;;;;;;-0.84;100.00;97694.61;1624245;87;21053;-69
2022/01/14 07:41:05;;;;;;;38.77;26.17;;;;;;;-0.81;100.00;97684.19;1624183;87;21109;-70
2022/01/14 07:43:36;;;;;;;22.13;12.07;;;;;;;-0.80;100.00;97679.20;1636744;86;21568;-70
2022/01/14 07:46:04;;;;;;;24.67;15.13;;;;;;;-0.77;100.00;97677.58;1697036;84;21065;-70
2022/01/14 07:48:38;;;;;;;24.53;14.03;;;;;;;-0.74;100.00;97677.27;1637676;87;21114;-72
2022/01/14 07:51:05;;;;;;;24.33;14.63;;;;;;;-0.70;100.00;97667.17;1648878;86;20986;-69
2022/01/14 07:53:32;;;;;;;32.23;21.23;;;;;;;-0.70;100.00;97660.53;1662217;86;21546;-70
2022/01/14 07:56:00;;;;;;;29.97;17.50;;;;;;;-0.69;100.00;97651.09;1659658;85;21066;-70
2022/01/14 07:58:27;;;;;;;49.63;36.27;;;;;;;-0.66;100.00;97638.80;1625140;88;21705;-69
2022/01/14 08:00:54;;;;;;;32.13;20.47;;;;;;;-0.63;100.00;97641.66;1642057;87;21082;-70
2022/01/14 08:03:21;;;;;;;34.87;23.03;;;;;;;-0.58;100.00;97640.69;1641698;87;21102;-70
2022/01/14 08:05:50;;;;;;;28.33;18.13;;;;;;;-0.55;100.00;97629.73;1652765;85;21846;-69
2022/01/14 08:08:19;;;;;;;25.00;14.97;;;;;;;-0.52;100.00;97620.12;1665711;85;21545;-69
2022/01/14 08:10:46;;;;;;;27.37;16.33;;;;;;;-0.48;100.00;97606.03;1633971;86;21075;-70
2022/01/14 08:13:14;;;;;;;22.97;13.60;;;;;;;-0.48;100.00;97600.25;1651121;86;21012;-69
2022/01/14 08:15:41;;;;;;;20.07;11.83;;;;;;;-0.44;100.00;97579.52;1623538;88;21041;-70
2022/01/14 08:18:09;;;;;;;22.43;13.60;;;;;;;-0.43;100.00;97586.47;1638835;86;21077;-71
2022/01/14 08:20:36;;;;;;;21.87;12.97;;;;;;;-0.43;100.00;97578.00;1641163;87;21546;-70
2022/01/14 08:23:03;;;;;;;26.00;16.33;;;;;;;-0.42;100.00;97569.06;1642075;86;21041;-69
2022/01/14 08:25:31;;;;;;;25.17;14.37;;;;;;;-0.41;100.00;97561.44;1642561;85;21006;-70
2022/01/14 08:27:58;;;;;;;23.43;13.50;;;;;;;-0.39;100.00;97563.91;1622426;87;21069;-70
2022/01/14 08:30:28;;;;;;;28.30;18.20;;;;;;;-0.41;100.00;97555.27;1643818;87;21057;-69
2022/01/14 08:32:57;;;;;;;22.67;13.60;;;;;;;-0.41;100.00;97549.49;1638200;87;21011;-70
2022/01/14 08:35:26;;;;;;;19.47;11.20;;;;;;;-0.41;100.00;97542.85;1630093;86;21013;-70
2022/01/14 08:37:53;;;;;;;23.87;14.87;;;;;;;-0.39;100.00;97541.34;1648892;87;21017;-70
2022/01/14 08:40:19;;;;;;;15.27;8.87;;;;;;;-0.36;100.00;97534.38;1604609;88;21113;-70
2022/01/14 08:42:53;;;;;;;15.13;8.53;;;;;;;-0.34;100.00;97524.42;1611475;88;21619;-72
2022/01/14 08:45:18;;;;;;;21.33;12.50;;;;;;;-0.30;100.00;97522.27;1640221;85;21010;-70
2022/01/14 08:47:45;;;;;;;27.03;15.83;;;;;;;-0.29;100.00;97516.80;1670923;86;21595;-69
2022/01/14 08:50:12;;;;;;;20.17;11.60;;;;;;;-0.30;100.00;97512.97;1676358;85;21077;-70
2022/01/14 08:52:39;;;;;;;15.50;8.60;;;;;;;-0.27;100.00;97500.70;1675775;85;21050;-70
2022/01/14 08:55:07;;;;;;;24.03;14.17;;;;;;;-0.27;100.00;97500.20;1674315;85;21041;-70
2022/01/14 08:57:34;;;;;;;22.87;12.50;;;;;;;-0.27;100.00;97498.87;1665195;85;21069;-69
2022/01/14 09:00:04;;;;;;;29.10;16.67;;;;;;;-0.27;100.00;97498.05;1735728;82;20991;-68
2022/01/14 09:02:33;;;;;;;24.07;14.13;;;;;;;-0.26;100.00;97487.27;1734833;83;21065;-70
2022/01/14 09:05:02;;;;;;;32.93;21.40;;;;;;;-0.23;100.00;97482.95;1732289;82;21575;-69
2022/01/14 09:07:31;;;;;;;42.90;26.87;;;;;;;-0.21;100.00;97486.27;1694755;84;21095;-69
2022/01/14 09:09:59;;;;;;;22.33;13.53;;;;;;;-0.19;100.00;97475.48;1699623;84;21039;-70
2022/01/14 09:12:28;;;;;;;24.90;13.67;;;;;;;-0.16;100.00;97468.52;1669902;84;21045;-69
2022/01/14 09:14:55;;;;;;;25.43;14.63;;;;;;;-0.13;100.00;97457.55;1683417;85;21158;-69
2022/01/14 09:17:24;;;;;;;23.77;14.03;;;;;;;-0.12;100.00;97444.61;1699720;84;21044;-68
2022/01/14 09:19:53;;;;;;;22.57;13.80;;;;;;;-0.08;100.00;97438.46;1706022;83;21535;-70
2022/01/14 09:22:19;;;;;;;24.87;15.47;;;;;;;-0.04;100.00;97429.15;1662393;85;21066;-70
2022/01/14 09:24:47;;;;;;;23.47;13.83;;;;;;;0.02;100.00;97424.98;1727435;82;21051;-70
2022/01/14 09:27:16;;;;;;;29.27;18.77;;;;;;;0.09;100.00;97416.67;1737289;82;21011;-72
2022/01/14 09:29:43;;;;;;;24.97;14.53;;;;;;;0.10;100.00;97397.09;1728376;83;21029;-70
2022/01/14 09:32:12;;;;;;;19.30;10.60;;;;;;;0.13;100.00;97384.29;1684165;85;21064;-70
2022/01/14 09:34:39;;;;;;;27.00;16.20;;;;;;;0.15;100.00;97378.30;1663943;85;21044;-69
2022/01/14 09:37:06;;;;;;;24.20;14.77;;;;;;;0.14;100.00;97359.86;1679003;84;21032;-70
2022/01/14 09:39:34;;;;;;;23.13;14.67;;;;;;;0.14;100.00;97369.16;1704385;83;21023;-70
2022/01/14 09:42:01;;;;;;;19.10;10.83;;;;;;;0.13;100.00;97355.56;1694891;83;21524;-71
2022/01/14 09:44:29;;;;;;;15.77;9.13;;;;;;;0.14;100.00;97347.91;1728809;81;21016;-70
2022/01/14 09:46:59;;;;;;;24.37;14.90;;;;;;;0.17;100.00;97339.09;1704883;83;21675;-69
2022/01/14 09:49:26;;;;;;;24.23;15.43;;;;;;;0.20;100.00;97335.28;1733014;82;21066;-71
2022/01/14 09:51:55;;;;;;;30.63;19.37;;;;;;;0.22;100.00;97337.77;1681993;84;21103;-70
2022/01/14 09:54:22;;;;;;;19.13;10.90;;;;;;;0.25;100.00;97326.30;1678472;84;21087;-70
2022/01/14 09:56:49;;;;;;;23.87;14.70;;;;;;;0.21;100.00;97332.93;1669633;84;21009;-71
2022/01/14 09:59:18;;;;;;;18.70;10.80;;;;;;;0.22;100.00;97321.31;1699746;82;20982;-69
2022/01/14 10:01:47;;;;;;;16.73;9.63;;;;;;;0.22;100.00;97309.86;1657938;85;21084;-70
2022/01/14 10:04:18;;;;;;;21.70;12.60;;;;;;;0.23;100.00;97306.19;1670391;85;21094;-71
2022/01/14 10:06:54;;;;;;;19.77;11.67;;;;;;;0.26;100.00;97311.98;1691305;84;21121;-70
2022/01/14 10:09:40;;;;;;;25.37;14.37;;;;;;;0.29;100.00;97307.66;1725178;83;21008;-74
2022/01/14 10:12:18;;;;;;;21.30;12.60;;;;;;;0.30;100.00;97299.17;1716449;83;21616;-72
2022/01/14 10:14:57;;;;;;;22.73;13.10;;;;;;;0.30;100.00;97291.20;1731015;82;20996;-69
2022/01/14 10:17:25;;;;;;;26.60;17.37;;;;;;;0.30;100.00;97296.04;1710382;83;21015;-70
2022/01/14 10:19:53;;;;;;;24.77;14.80;;;;;;;0.30;100.00;97290.72;1708973;83;20998;-70
2022/01/14 10:22:28;;;;;;;28.40;17.03;;;;;;;0.31;100.00;97296.86;1730740;82;21074;-71
2022/01/14 10:25:08;;;;;;;23.77;13.97;;;;;;;0.33;100.00;97296.18;1721420;82;21555;-69
2022/01/14 10:27:45;;;;;;;29.70;18.07;;;;;;;0.35;100.00;97283.54;1696092;83;21067;-72
2022/01/14 10:30:31;;;;;;;24.93;13.97;;;;;;;0.35;100.00;97283.06;1685937;85;21000;-69
2022/01/14 10:33:03;;;;;;;23.67;13.47;;;;;;;0.37;100.00;97267.77;1657149;85;21032;-70
2022/01/14 10:35:38;;;;;;;21.80;13.63;;;;;;;0.41;100.00;97250.95;1668286;84;21093;-69
2022/01/14 10:38:07;;;;;;;26.37;16.73;;;;;;;0.44;100.00;97256.41;1692095;83;21003;-69
2022/01/14 10:40:36;;;;;;;22.83;13.10;;;;;;;0.47;100.00;97235.63;1665180;83;21519;-69
2022/01/14 10:43:06;;;;;;;22.50;13.30;;;;;;;0.49;100.00;97232.28;1672327;84;21066;-69
2022/01/14 10:45:34;;;;;;;23.93;14.00;;;;;;;0.47;100.00;97219.67;1680338;85;21026;-69
2022/01/14 10:48:05;;;;;;;24.23;14.60;;;;;;;0.43;100.00;97216.23;1653291;85;21749;-67
2022/01/14 10:50:56;;;;;;;27.07;16.90;;;;;;;0.37;100.00;97219.06;1688100;83;21214;-69
2022/01/14 10:53:26;;;;;;;20.40;12.07;;;;;;;0.30;100.00;97214.97;1695749;83;21098;-70
2022/01/14 10:56:06;;;;;;;18.90;11.30;;;;;;;0.27;100.00;97214.50;1647681;86;21003;-70
2022/01/14 10:58:37;;;;;;;16.77;9.37;;;;;;;0.22;100.00;97217.66;1647915;85;21593;-70
2022/01/14 11:01:15;;;;;;;14.23;8.40;;;;;;;0.20;100.00;97217.53;1676488;85;21050;-71
2022/01/14 11:03:48;;;;;;;25.27;16.17;;;;;;;0.18;100.00;97217.19;1679593;84;21530;-70
2022/01/14 11:06:25;;;;;;;25.10;14.85;;;;;;;0.17;100.00;97210.20;1668964;85;21511;-69
2022/01/14 11:09:00;;;;;;;23.30;14.40;;;;;;;0.21;100.00;97199.23;1593508;89;21145;-70
2022/01/14 11:11:31;;;;;;;35.20;21.57;;;;;;;0.23;100.00;97198.55;1512134;93;21615;-69
2022/01/14 11:13:58;;;;;;;31.10;17.13;;;;;;;0.24;100.00;97190.41;1490990;95;21101;-69
2022/01/14 11:16:25;;;;;;;43.03;26.60;;;;;;;0.23;100.00;97172.83;1495981;93;21119;-69
2022/01/14 11:18:53;;;;;;;41.33;24.53;;;;;;;0.24;100.00;97178.45;1485349;96;21090;-69
2022/01/14 11:24:06;;;;;;;36.37;24.93;;;;;;;0.26;100.00;97172.45;1489267;95;21127;-71
2022/01/14 11:26:36;;;;;;;25.10;16.20;;;;;;;0.28;100.00;97153.67;1496299;94;21156;-70
2022/01/14 11:29:17;;;;;;;32.93;18.60;;;;;;;0.26;100.00;97155.69;1479927;95;21141;-70
2022/01/14 11:31:44;;;;;;;30.30;19.00;;;;;;;0.23;100.00;97148.91;1484422;96;21124;-70
2022/01/14 11:34:32;;;;;;;35.63;24.83;;;;;;;0.22;100.00;97142.44;1478904;96;21633;-70
2022/01/14 11:37:03;;;;;;;39.73;26.47;;;;;;;0.22;100.00;97151.23;1451476;97;21642;-70
2022/01/14 11:39:34;;;;;;;30.77;18.97;;;;;;;0.23;100.00;97136.09;1465134;97;21111;-71
2022/01/14 11:42:13;;;;;;;40.03;25.73;;;;;;;0.23;100.00;97124.98;1438978;98;21297;-69
2022/01/14 11:44:55;;;;;;;36.97;22.63;;;;;;;0.22;100.00;97125.16;1429809;99;21140;-70
2022/01/14 11:47:42;;;;;;;24.13;13.80;;;;;;;0.22;100.00;97123.83;1438958;99;21225;-69
2022/01/14 11:52:50;;;;;;;24.30;13.90;;;;;;;0.24;100.00;97097.39;1446610;98;21170;-72